EDV4989 KTRI-KATL
Flight info
| Callsign | EDV4989 |
|---|---|
| Flight time | N/A |
| Altitude | 18000 |
| Route | PUPDG ONDRE1 |
| Aircraft | CRJ7/M-VGDW/C |
Departure
| Time | 2026-04-19 23:09 |
|---|---|
| Airport | Tri-Cities Regional TN/VA Airport (KTRI) |
Arrival
| Time | N/A |
|---|---|
| Airport | Hartsfield Jackson Atlanta International Airport (KATL) |
| Time | Latitude | Longitude | Altitude | Speed | Heading |
|---|---|---|---|---|---|
| 2026-04-19 22:44 | 36.47981 | -82.40658 | 1521 ft | 0 kts | 8° |
| 2026-04-19 22:54 | 36.47968 | -82.40660 | 1519 ft | 3 kts | 8° |
| 2026-04-19 22:55 | 36.47949 | -82.40663 | 1518 ft | 3 kts | 8° |
| 2026-04-19 22:55 | 36.47935 | -82.40665 | 1521 ft | 0 kts | 8° |
| 2026-04-19 22:59 | 36.47939 | -82.40664 | 1521 ft | 2 kts | 30° |
| 2026-04-19 22:59 | 36.47952 | -82.40638 | 1515 ft | 7 kts | 64° |
| 2026-04-19 22:59 | 36.47972 | -82.40583 | 1519 ft | 6 kts | 74° |
| 2026-04-19 23:00 | 36.47955 | -82.40549 | 1520 ft | 6 kts | 143° |
| 2026-04-19 23:00 | 36.47909 | -82.40475 | 1519 ft | 14 kts | 107° |
| 2026-04-19 23:00 | 36.47908 | -82.40341 | 1519 ft | 17 kts | 88° |
| 2026-04-19 23:00 | 36.47912 | -82.40224 | 1518 ft | 13 kts | 88° |
| 2026-04-19 23:01 | 36.47915 | -82.40096 | 1520 ft | 17 kts | 88° |
| 2026-04-19 23:01 | 36.47960 | -82.39981 | 1520 ft | 15 kts | 10° |
| 2026-04-19 23:01 | 36.48059 | -82.39985 | 1521 ft | 14 kts | 345° |
| 2026-04-19 23:01 | 36.48084 | -82.40004 | 1519 ft | 0 kts | 311° |
| 2026-04-19 23:08 | 36.48114 | -82.40089 | 1525 ft | 22 kts | 256° |
| 2026-04-19 23:08 | 36.47950 | -82.40301 | 1520 ft | 53 kts | 224° |
| 2026-04-19 23:08 | 36.47500 | -82.40810 | 1517 ft | 124 kts | 221° |
| 2026-04-19 23:09 | 36.46729 | -82.41700 | 1703 ft | 166 kts | 226° |
| 2026-04-19 23:09 | 36.45903 | -82.42642 | 2964 ft | 162 kts | 224° |
| 2026-04-19 23:09 | 36.44931 | -82.43621 | 3340 ft | 202 kts | 214° |
| 2026-04-19 23:09 | 36.43696 | -82.44685 | 3834 ft | 230 kts | 220° |
| 2026-04-19 23:10 | 36.42405 | -82.45979 | 4745 ft | 247 kts | 220° |
| 2026-04-19 23:10 | 36.41031 | -82.47352 | 5571 ft | 257 kts | 222° |
| 2026-04-19 23:10 | 36.39647 | -82.48818 | 6452 ft | 269 kts | 221° |
| 2026-04-19 23:10 | 36.38155 | -82.50400 | 6793 ft | 296 kts | 221° |
| 2026-04-19 23:11 | 36.36630 | -82.52067 | 7902 ft | 286 kts | 223° |
| 2026-04-19 23:11 | 36.35162 | -82.53654 | 9221 ft | 273 kts | 221° |
| 2026-04-19 23:11 | 36.33665 | -82.55107 | 10131 ft | 280 kts | 214° |
| 2026-04-19 23:11 | 36.31882 | -82.56321 | 10424 ft | 304 kts | 209° |
| 2026-04-19 23:12 | 36.29934 | -82.57535 | 10793 ft | 322 kts | 208° |
| 2026-04-19 23:12 | 36.27910 | -82.58797 | 11322 ft | 333 kts | 210° |
| 2026-04-19 23:12 | 36.25852 | -82.60132 | 12125 ft | 335 kts | 211° |
| 2026-04-19 23:12 | 36.23779 | -82.61544 | 12937 ft | 337 kts | 212° |
| 2026-04-19 23:13 | 36.21744 | -82.62933 | 13728 ft | 339 kts | 213° |
| 2026-04-19 23:13 | 36.19676 | -82.64346 | 14476 ft | 341 kts | 213° |
| 2026-04-19 23:13 | 36.17586 | -82.65771 | 15181 ft | 344 kts | 213° |
| 2026-04-19 23:13 | 36.15488 | -82.67213 | 15864 ft | 347 kts | 213° |
| 2026-04-19 23:14 | 36.13366 | -82.68655 | 16521 ft | 349 kts | 213° |
| 2026-04-19 23:14 | 36.11228 | -82.70110 | 17143 ft | 352 kts | 213° |
| 2026-04-19 23:14 | 36.09065 | -82.71583 | 17638 ft | 358 kts | 213° |
| 2026-04-19 23:14 | 36.06859 | -82.73084 | 17866 ft | 364 kts | 213° |
| 2026-04-19 23:15 | 36.04627 | -82.74604 | 17971 ft | 368 kts | 213° |
| 2026-04-19 23:15 | 36.02375 | -82.76134 | 17990 ft | 370 kts | 213° |
| 2026-04-19 23:15 | 36.00133 | -82.77658 | 18017 ft | 366 kts | 213° |
| 2026-04-19 23:15 | 35.97927 | -82.79153 | 18019 ft | 356 kts | 213° |
| 2026-04-19 23:16 | 35.95774 | -82.80614 | 18024 ft | 352 kts | 213° |
| 2026-04-19 23:16 | 35.93632 | -82.82069 | 18076 ft | 349 kts | 213° |
| 2026-04-19 23:16 | 35.91524 | -82.83493 | 18162 ft | 349 kts | 213° |
| 2026-04-19 23:16 | 35.89388 | -82.84946 | 18188 ft | 351 kts | 213° |
| 2026-04-19 23:17 | 35.87240 | -82.86396 | 18189 ft | 353 kts | 213° |
| 2026-04-19 23:17 | 35.85072 | -82.87865 | 18191 ft | 357 kts | 213° |
| 2026-04-19 23:17 | 35.82881 | -82.89342 | 18190 ft | 361 kts | 213° |
| 2026-04-19 23:17 | 35.80665 | -82.90842 | 18192 ft | 364 kts | 213° |
| 2026-04-19 23:18 | 35.78432 | -82.92347 | 18193 ft | 367 kts | 213° |
| 2026-04-19 23:18 | 35.76946 | -82.93351 | 18188 ft | 369 kts | 213° |
| 2026-04-19 23:18 | 35.74685 | -82.94879 | 18188 ft | 371 kts | 213° |
| 2026-04-19 23:18 | 35.72414 | -82.96408 | 18210 ft | 373 kts | 213° |
| 2026-04-19 23:19 | 35.69382 | -82.98449 | 18207 ft | 375 kts | 213° |
| 2026-04-19 23:19 | 35.67096 | -82.99986 | 18205 ft | 374 kts | 213° |
| 2026-04-19 23:19 | 35.65557 | -83.01021 | 18205 ft | 370 kts | 213° |
| 2026-04-19 23:19 | 35.63312 | -83.02531 | 18182 ft | 365 kts | 213° |
| 2026-04-19 23:20 | 35.61094 | -83.04020 | 18208 ft | 361 kts | 213° |
| 2026-04-19 23:20 | 35.58933 | -83.05470 | 18205 ft | 357 kts | 213° |
| 2026-04-19 23:20 | 35.56762 | -83.06931 | 18196 ft | 354 kts | 213° |
| 2026-04-19 23:20 | 35.54609 | -83.08374 | 18180 ft | 351 kts | 213° |
| 2026-04-19 23:21 | 35.52456 | -83.09820 | 18197 ft | 356 kts | 213° |
| 2026-04-19 23:21 | 35.50250 | -83.11298 | 18188 ft | 366 kts | 213° |
| 2026-04-19 23:21 | 35.47984 | -83.12818 | 18195 ft | 375 kts | 213° |
| 2026-04-19 23:21 | 35.45660 | -83.14366 | 18186 ft | 383 kts | 213° |
| 2026-04-19 23:22 | 35.43321 | -83.15931 | 18204 ft | 380 kts | 213° |
| 2026-04-19 23:22 | 35.41018 | -83.17466 | 18210 ft | 374 kts | 213° |
| 2026-04-19 23:22 | 35.38748 | -83.18983 | 18201 ft | 368 kts | 213° |
| 2026-04-19 23:22 | 35.36509 | -83.20474 | 18192 ft | 363 kts | 213° |
| 2026-04-19 23:23 | 35.34333 | -83.21926 | 18189 ft | 359 kts | 213° |
| 2026-04-19 23:23 | 35.32151 | -83.23379 | 18191 ft | 356 kts | 213° |
| 2026-04-19 23:23 | 35.29976 | -83.24824 | 18190 ft | 354 kts | 213° |
| 2026-04-19 23:23 | 35.27815 | -83.26267 | 18198 ft | 355 kts | 213° |
| 2026-04-19 23:24 | 35.25636 | -83.27715 | 18207 ft | 357 kts | 213° |
| 2026-04-19 23:24 | 35.23450 | -83.29169 | 18180 ft | 358 kts | 213° |